createdAt,value
2018-06-16T00:00:55.869Z,96.40
2018-06-16T00:03:24.092Z,96.50
2018-06-16T00:05:52.312Z,96.60
2018-06-16T00:08:20.535Z,96.60
2018-06-16T00:10:48.749Z,96.60
2018-06-16T00:13:17.456Z,96.70
2018-06-16T00:15:45.669Z,96.70
2018-06-16T00:18:13.887Z,96.70
2018-06-16T00:20:42.091Z,96.70
2018-06-16T00:23:10.308Z,96.80
2018-06-16T00:25:38.520Z,96.80
2018-06-16T00:28:06.725Z,96.80
2018-06-16T00:30:34.932Z,96.90
2018-06-16T00:33:03.164Z,96.90
2018-06-16T00:35:31.391Z,97.00
2018-06-16T00:37:59.611Z,97.00
2018-06-16T00:40:27.831Z,97.00
2018-06-16T00:42:56.012Z,97.00
2018-06-16T00:45:24.240Z,96.80
2018-06-16T00:47:52.447Z,97.20
2018-06-16T00:50:20.654Z,97.50
2018-06-16T00:52:48.939Z,97.20
2018-06-16T00:55:17.135Z,97.20
2018-06-16T00:57:47.407Z,97.20
2018-06-16T01:00:16.713Z,97.20
2018-06-16T01:02:44.897Z,97.20
2018-06-16T01:05:13.160Z,97.30
2018-06-16T01:07:41.389Z,97.30
2018-06-16T01:10:10.592Z,97.40
2018-06-16T01:12:39.171Z,97.40
2018-06-16T01:15:07.657Z,97.40
2018-06-16T01:17:35.868Z,97.50
2018-06-16T01:20:04.682Z,97.40
2018-06-16T01:22:32.909Z,97.40
2018-06-16T01:25:01.110Z,97.50
2018-06-16T01:27:29.704Z,97.60
2018-06-16T01:29:58.107Z,97.80
2018-06-16T01:32:26.364Z,97.50
2018-06-16T01:34:54.571Z,97.60
2018-06-16T01:37:22.784Z,97.60
2018-06-16T01:39:51.000Z,97.60
2018-06-16T01:42:19.331Z,97.70
2018-06-16T01:44:47.532Z,97.70
2018-06-16T01:47:15.750Z,97.70
2018-06-16T01:49:43.976Z,97.70
2018-06-16T01:52:12.165Z,97.90
2018-06-16T01:54:40.389Z,98.00
2018-06-16T01:57:08.596Z,98.00
2018-06-16T01:59:36.840Z,98.00
2018-06-16T02:02:05.326Z,97.90
2018-06-16T02:04:33.532Z,97.90
2018-06-16T02:07:01.740Z,97.80
2018-06-16T02:09:29.978Z,97.80
2018-06-16T02:11:58.183Z,97.80
2018-06-16T02:14:26.384Z,97.90
2018-06-16T02:16:54.585Z,97.90
2018-06-16T02:19:22.801Z,97.90
2018-06-16T02:21:51.920Z,98.20
2018-06-16T02:24:20.192Z,97.90
2018-06-16T02:26:48.364Z,98.00
2018-06-16T02:29:16.576Z,98.10
2018-06-16T02:31:44.799Z,98.20
2018-06-16T02:34:13.016Z,98.10
2018-06-16T02:36:41.360Z,98.10
2018-06-16T02:39:10.803Z,98.00
2018-06-16T02:41:39.024Z,98.10
2018-06-16T02:44:07.219Z,98.10
2018-06-16T02:46:35.424Z,98.10
2018-06-16T02:49:03.678Z,98.10
2018-06-16T02:51:32.055Z,98.20
2018-06-16T02:54:00.249Z,98.20
2018-06-16T02:56:28.445Z,98.10
2018-06-16T02:58:56.640Z,98.20
2018-06-16T03:01:24.884Z,98.10
2018-06-16T03:03:53.641Z,98.20
2018-06-16T03:06:21.861Z,98.10
2018-06-16T03:08:50.069Z,98.10
2018-06-16T03:11:18.408Z,98.10
2018-06-16T03:13:46.809Z,98.10
2018-06-16T03:16:15.032Z,98.10
2018-06-16T03:18:43.436Z,98.10
2018-06-16T03:21:11.644Z,98.10
2018-06-16T03:23:40.007Z,98.20
2018-06-16T03:26:08.240Z,98.20
2018-06-16T03:28:36.521Z,98.20
2018-06-16T03:31:04.714Z,98.20
2018-06-16T03:33:32.948Z,98.30
2018-06-16T03:36:01.299Z,98.30
2018-06-16T03:38:30.475Z,98.30
2018-06-16T03:40:58.696Z,98.30
2018-06-16T03:43:26.896Z,98.30
2018-06-16T03:45:55.128Z,98.30
2018-06-16T03:48:23.331Z,98.30
2018-06-16T03:50:51.550Z,98.40
2018-06-16T03:53:19.751Z,98.50
2018-06-16T03:55:48.086Z,98.50
2018-06-16T03:58:16.333Z,98.60
2018-06-16T04:00:44.560Z,98.60
2018-06-16T04:03:12.775Z,98.60
2018-06-16T04:05:40.976Z,99.00
2018-06-16T04:08:09.191Z,98.70
2018-06-16T04:10:37.405Z,98.70
2018-06-16T04:13:05.635Z,98.70
2018-06-16T04:15:33.835Z,98.70
2018-06-16T04:18:02.028Z,98.70
2018-06-16T04:20:30.249Z,98.60
2018-06-16T04:25:26.467Z,98.50
2018-06-16T04:27:54.656Z,98.60
2018-06-16T04:30:22.893Z,98.60
2018-06-16T04:32:51.109Z,98.60
2018-06-16T04:35:19.312Z,98.60
2018-06-16T04:37:47.589Z,98.60
2018-06-16T04:40:15.873Z,98.60
2018-06-16T04:42:44.060Z,98.60
2018-06-16T04:45:12.276Z,98.60
2018-06-16T04:47:40.501Z,98.60
2018-06-16T04:50:08.712Z,98.60
2018-06-16T04:52:36.941Z,98.50
2018-06-16T04:55:05.207Z,98.50
2018-06-16T04:57:33.396Z,98.50
2018-06-16T05:00:01.601Z,98.50
2018-06-16T05:02:29.808Z,98.50
2018-06-16T05:04:58.024Z,98.50
2018-06-16T05:07:26.240Z,98.50
2018-06-16T05:09:54.444Z,98.50
2018-06-16T05:12:22.704Z,98.40
2018-06-16T05:14:50.924Z,98.30
2018-06-16T05:17:19.156Z,98.30
2018-06-16T05:19:47.349Z,98.30
2018-06-16T05:24:43.705Z,98.30
2018-06-16T05:27:11.956Z,98.30
2018-06-16T05:29:40.180Z,98.60
2018-06-16T05:32:08.431Z,98.20
2018-06-16T05:34:36.655Z,98.20
2018-06-16T05:37:04.900Z,98.20
2018-06-16T05:39:33.132Z,98.20
2018-06-16T05:42:01.322Z,98.10
2018-06-16T05:44:29.528Z,97.90
2018-06-16T05:46:57.756Z,98.00
2018-06-16T05:49:25.983Z,97.90
2018-06-16T05:51:54.391Z,97.90
2018-06-16T05:54:22.624Z,97.90
2018-06-16T05:56:50.844Z,97.80
2018-06-16T05:59:19.089Z,97.80
2018-06-16T06:01:47.324Z,97.90
2018-06-16T06:04:15.544Z,97.70
2018-06-16T06:06:44.421Z,97.60
2018-06-16T06:09:12.630Z,97.90
2018-06-16T06:11:40.877Z,97.60
2018-06-16T06:14:09.901Z,97.50
2018-06-16T06:16:38.687Z,97.50
2018-06-16T06:19:06.949Z,97.40
2018-06-16T06:21:35.212Z,97.40
2018-06-16T06:24:03.431Z,97.30
2018-06-16T06:26:31.667Z,97.20
2018-06-16T06:28:59.868Z,97.10
2018-06-16T06:31:28.104Z,97.00
2018-06-16T06:33:56.372Z,96.80
2018-06-16T06:36:25.083Z,96.60
2018-06-16T06:38:53.316Z,96.40
2018-06-16T06:41:21.606Z,96.20
2018-06-16T06:43:49.960Z,96.00
2018-06-16T06:46:18.180Z,95.90
2018-06-16T06:48:46.394Z,95.60
2018-06-16T06:53:48.416Z,95.30
2018-06-16T06:56:16.704Z,95.00
2018-06-16T06:58:44.900Z,94.80
2018-06-16T07:01:13.116Z,94.60
2018-06-16T07:06:09.487Z,94.20
2018-06-16T07:08:37.713Z,94.20
2018-06-16T07:11:05.908Z,94.00
2018-06-16T07:13:34.148Z,93.70
2018-06-16T07:18:30.327Z,92.90
2018-06-16T07:20:58.539Z,92.60
2018-06-16T07:23:26.774Z,92.30
2018-06-16T07:25:54.989Z,92.00
2018-06-16T07:28:23.211Z,91.70
2018-06-16T07:30:51.408Z,91.10
2018-06-16T07:33:19.644Z,90.80
2018-06-16T07:35:47.844Z,90.20
2018-06-16T07:38:16.124Z,89.80
2018-06-16T07:40:44.376Z,89.10
2018-06-16T07:43:12.557Z,88.60
2018-06-16T07:45:40.813Z,88.50
2018-06-16T07:48:09.025Z,88.10
2018-06-16T07:50:37.232Z,87.50
2018-06-16T07:53:05.457Z,86.90
2018-06-16T07:55:33.659Z,85.80
2018-06-16T07:58:01.904Z,85.20
2018-06-16T08:00:30.089Z,84.60
2018-06-16T08:02:58.335Z,84.00
2018-06-16T08:05:26.529Z,83.70
2018-06-16T08:07:54.727Z,83.00
2018-06-16T08:10:22.936Z,81.70
2018-06-16T08:12:51.215Z,81.40
2018-06-16T08:17:47.295Z,79.30
2018-06-16T08:20:15.494Z,78.10
2018-06-16T08:22:43.737Z,76.30
2018-06-16T08:25:11.969Z,75.30
2018-06-16T08:27:40.161Z,74.40
2018-06-16T08:30:08.384Z,71.80
2018-06-16T08:32:36.580Z,72.80
2018-06-16T08:35:04.783Z,71.80
2018-06-16T08:37:32.996Z,70.70
2018-06-16T08:40:01.233Z,70.90
2018-06-16T08:42:29.466Z,72.10
2018-06-16T08:44:57.685Z,71.10
2018-06-16T08:47:25.909Z,71.20
2018-06-16T08:49:54.168Z,70.70
2018-06-16T08:52:22.376Z,69.20
2018-06-16T08:54:50.560Z,66.30
2018-06-16T08:57:18.930Z,66.00
2018-06-16T08:59:47.112Z,65.50
2018-06-16T09:04:43.384Z,65.20
2018-06-16T09:09:39.542Z,62.30
2018-06-16T09:12:07.739Z,61.80
2018-06-16T09:14:36.040Z,60.30
2018-06-16T09:17:04.274Z,60.80
2018-06-16T09:19:32.488Z,59.70
2018-06-16T09:22:00.693Z,59.70
2018-06-16T09:24:28.872Z,59.30
2018-06-16T09:26:57.087Z,58.40
2018-06-16T09:29:25.309Z,58.20
2018-06-16T09:31:53.599Z,59.00
2018-06-16T09:34:21.724Z,57.70
2018-06-16T09:36:49.968Z,56.90
2018-06-16T09:39:18.172Z,56.10
2018-06-16T09:44:14.465Z,54.40
2018-06-16T09:46:42.726Z,54.60
2018-06-16T09:49:11.537Z,55.60
2018-06-16T09:51:39.744Z,56.20
2018-06-16T09:54:07.935Z,56.40
2018-06-16T09:56:36.143Z,56.70
2018-06-16T09:59:04.404Z,55.50
2018-06-16T10:01:32.664Z,54.60
2018-06-16T10:06:28.836Z,53.00
2018-06-16T10:08:57.079Z,52.50
2018-06-16T10:11:25.316Z,52.10
2018-06-16T10:13:53.616Z,51.90
2018-06-16T10:16:21.823Z,50.60
2018-06-16T10:18:51.047Z,49.70
2018-06-16T10:21:19.279Z,49.30
2018-06-16T10:23:47.457Z,49.60
2018-06-16T10:26:15.674Z,50.00
2018-06-16T10:28:43.899Z,50.40
2018-06-16T10:31:12.088Z,51.00
2018-06-16T10:33:40.329Z,51.30
2018-06-16T10:36:08.540Z,50.80
2018-06-16T10:38:36.764Z,52.10
2018-06-16T10:41:05.000Z,53.30
2018-06-16T10:43:33.204Z,52.90
2018-06-16T10:46:01.405Z,52.50
2018-06-16T10:48:29.619Z,52.70
2018-06-16T10:50:57.851Z,52.80
2018-06-16T10:55:54.053Z,51.70
2018-06-16T10:58:22.253Z,50.40
2018-06-16T11:00:50.462Z,49.60
2018-06-16T11:03:18.660Z,50.50
2018-06-16T11:05:46.976Z,48.90
2018-06-16T11:08:15.176Z,48.70
2018-06-16T11:10:43.395Z,47.80
2018-06-16T11:13:11.840Z,47.70
2018-06-16T11:15:40.045Z,47.80
2018-06-16T11:18:08.259Z,47.40
2018-06-16T11:20:36.464Z,47.60
2018-06-16T11:23:04.715Z,47.60
2018-06-16T11:25:32.922Z,47.10
2018-06-16T11:28:01.153Z,47.00
2018-06-16T11:30:29.367Z,46.20
2018-06-16T11:32:58.471Z,45.20
2018-06-16T11:35:26.721Z,44.50
2018-06-16T11:37:54.949Z,44.40
2018-06-16T11:40:23.187Z,44.00
2018-06-16T11:42:51.416Z,44.10
2018-06-16T11:45:19.606Z,45.10
2018-06-16T11:47:47.833Z,45.20
2018-06-16T11:50:16.019Z,45.40
2018-06-16T11:52:44.256Z,46.30
2018-06-16T11:55:12.488Z,46.50
2018-06-16T11:57:40.716Z,44.80
2018-06-16T12:00:09.504Z,43.60
2018-06-16T12:02:38.058Z,43.20
2018-06-16T12:05:06.350Z,43.40
2018-06-16T12:07:34.564Z,43.50
2018-06-16T12:10:02.775Z,43.80
2018-06-16T12:12:31.031Z,43.70
2018-06-16T12:14:59.249Z,42.80
2018-06-16T12:19:55.435Z,42.10
2018-06-16T12:22:23.612Z,42.70
2018-06-16T12:24:51.881Z,42.30
2018-06-16T12:27:20.134Z,42.30
2018-06-16T12:29:48.360Z,42.20
2018-06-16T12:32:16.540Z,41.30
2018-06-16T12:34:44.752Z,41.40
2018-06-16T12:37:13.035Z,42.60
2018-06-16T12:39:41.217Z,42.50
2018-06-16T12:42:09.433Z,43.10
2018-06-16T12:44:37.680Z,42.40
2018-06-16T12:47:05.883Z,43.90
2018-06-16T12:52:02.019Z,44.30
2018-06-16T12:54:30.216Z,43.30
2018-06-16T12:59:26.419Z,42.70
2018-06-16T13:01:54.607Z,43.40
2018-06-16T13:04:22.840Z,43.40
2018-06-16T13:06:51.173Z,43.70
2018-06-16T13:09:19.377Z,43.70
2018-06-16T13:11:47.628Z,42.50
2018-06-16T13:16:43.823Z,40.90
2018-06-16T13:19:12.972Z,40.20
2018-06-16T13:21:41.192Z,39.60
2018-06-16T13:24:09.424Z,38.40
2018-06-16T13:26:37.640Z,38.50
2018-06-16T13:29:05.832Z,36.90
2018-06-16T13:31:34.080Z,36.50
2018-06-16T13:34:02.260Z,36.40
2018-06-16T13:36:30.515Z,36.40
2018-06-16T13:38:59.013Z,36.10
2018-06-16T13:41:27.233Z,36.20
2018-06-16T13:43:55.471Z,35.90
2018-06-16T13:46:23.681Z,35.60
2018-06-16T13:48:52.178Z,36.50
2018-06-16T13:51:20.373Z,35.60
2018-06-16T13:53:48.564Z,35.30
2018-06-16T13:56:16.769Z,34.40
2018-06-16T13:58:44.978Z,34.00
2018-06-16T14:01:13.200Z,34.70
2018-06-16T14:03:41.408Z,34.00
2018-06-16T14:06:09.599Z,33.80
2018-06-16T14:08:37.907Z,33.10
2018-06-16T14:11:06.324Z,33.30
2018-06-16T14:13:34.524Z,33.00
2018-06-16T14:16:02.742Z,32.60
2018-06-16T14:18:30.943Z,32.80
2018-06-16T14:20:59.204Z,32.10
2018-06-16T14:23:27.395Z,32.20
2018-06-16T14:25:55.646Z,32.00
2018-06-16T14:28:23.849Z,32.20
2018-06-16T14:30:52.092Z,32.20
2018-06-16T14:33:20.303Z,32.00
2018-06-16T14:35:48.540Z,32.20
2018-06-16T14:38:16.779Z,33.00
2018-06-16T14:40:45.408Z,34.10
2018-06-16T14:43:13.612Z,33.20
2018-06-16T14:45:41.794Z,33.00
2018-06-16T14:48:10.004Z,32.70
2018-06-16T14:50:38.230Z,33.10
2018-06-16T14:53:06.468Z,33.50
2018-06-16T14:55:34.677Z,33.00
2018-06-16T14:58:02.891Z,32.90
2018-06-16T15:00:31.195Z,32.90
2018-06-16T15:02:59.416Z,32.40
2018-06-16T15:05:27.646Z,32.50
2018-06-16T15:07:55.948Z,32.50
2018-06-16T15:10:24.191Z,32.30
2018-06-16T15:12:52.388Z,32.10
2018-06-16T15:15:20.592Z,32.00
2018-06-16T15:17:48.816Z,31.70
2018-06-16T15:20:17.024Z,31.00
2018-06-16T15:22:45.217Z,31.10
2018-06-16T15:25:13.432Z,31.40
2018-06-16T15:27:41.639Z,31.50
2018-06-16T15:30:09.860Z,31.30
2018-06-16T15:32:38.080Z,31.20
2018-06-16T15:35:06.564Z,31.50
2018-06-16T15:37:34.777Z,32.80
2018-06-16T15:40:03.068Z,34.20
2018-06-16T15:42:31.390Z,34.60
2018-06-16T15:44:59.508Z,33.30
2018-06-16T15:47:27.711Z,32.10
2018-06-16T15:49:55.945Z,32.20
2018-06-16T15:52:24.151Z,32.20
2018-06-16T15:54:52.386Z,32.00
2018-06-16T15:57:20.632Z,31.90
2018-06-16T15:59:48.890Z,31.60
2018-06-16T16:02:17.108Z,31.20
2018-06-16T16:04:45.425Z,31.10
2018-06-16T16:07:13.620Z,31.30
2018-06-16T16:09:41.956Z,31.70
2018-06-16T16:12:10.171Z,31.60
2018-06-16T16:14:38.389Z,31.50
2018-06-16T16:17:06.738Z,31.00
2018-06-16T16:19:34.948Z,30.90
2018-06-16T16:22:03.145Z,30.00
2018-06-16T16:24:31.501Z,29.30
2018-06-16T16:26:59.908Z,28.80
2018-06-16T16:29:28.173Z,28.50
2018-06-16T16:31:56.394Z,28.50
2018-06-16T16:34:24.680Z,28.00
2018-06-16T16:36:52.899Z,27.60
2018-06-16T16:39:21.109Z,27.50
2018-06-16T16:41:49.352Z,27.90
2018-06-16T16:44:17.565Z,27.20
2018-06-16T16:46:45.754Z,26.70
2018-06-16T16:49:13.983Z,26.70
2018-06-16T16:51:42.274Z,26.60
2018-06-16T16:54:10.920Z,26.40
2018-06-16T16:56:39.149Z,26.40
2018-06-16T16:59:08.562Z,26.30
2018-06-16T17:01:36.773Z,26.10
2018-06-16T17:04:05.201Z,26.00
2018-06-16T17:06:33.429Z,26.00
2018-06-16T17:09:01.628Z,25.90
2018-06-16T17:11:29.861Z,26.10
2018-06-16T17:13:58.067Z,26.10
2018-06-16T17:16:26.281Z,26.00
2018-06-16T17:18:54.474Z,25.90
2018-06-16T17:21:22.856Z,25.70
2018-06-16T17:23:51.873Z,25.90
2018-06-16T17:26:20.194Z,25.80
2018-06-16T17:28:48.377Z,25.80
2018-06-16T17:31:16.603Z,26.10
2018-06-16T17:36:12.768Z,28.50
2018-06-16T17:38:41.028Z,29.60
2018-06-16T17:41:09.226Z,30.70
2018-06-16T17:43:37.435Z,32.10
2018-06-16T17:46:05.651Z,33.40
2018-06-16T17:48:33.913Z,34.70
2018-06-16T17:51:02.171Z,35.90
2018-06-16T17:53:30.461Z,36.90
2018-06-16T17:55:58.668Z,37.90
2018-06-16T17:58:26.884Z,38.70
2018-06-16T18:00:55.105Z,39.30
2018-06-16T18:03:23.316Z,39.80
2018-06-16T18:05:51.532Z,40.30
2018-06-16T18:08:19.727Z,40.60
2018-06-16T18:10:47.944Z,40.80
2018-06-16T18:13:16.136Z,41.10
2018-06-16T18:15:44.338Z,42.10
2018-06-16T18:18:12.535Z,41.70
2018-06-16T18:20:40.743Z,42.10
2018-06-16T18:25:37.062Z,42.70
2018-06-16T18:28:05.379Z,43.00
2018-06-16T18:30:33.709Z,43.60
2018-06-16T18:33:01.936Z,44.10
2018-06-16T18:35:30.170Z,44.60
2018-06-16T18:37:58.412Z,45.20
2018-06-16T18:40:26.676Z,45.50
2018-06-16T18:42:54.868Z,46.00
2018-06-16T18:45:23.088Z,46.40
2018-06-16T18:47:51.277Z,46.70
2018-06-16T18:50:19.506Z,47.00
2018-06-16T18:52:47.680Z,47.50
2018-06-16T18:55:15.883Z,48.00
2018-06-16T18:57:44.169Z,48.10
2018-06-16T19:00:12.372Z,48.60
2018-06-16T19:02:40.560Z,48.80
2018-06-16T19:05:08.804Z,49.10
2018-06-16T19:07:37.029Z,49.40
2018-06-16T19:10:05.364Z,50.30
2018-06-16T19:12:33.574Z,50.10
2018-06-16T19:15:01.780Z,50.50
2018-06-16T19:17:29.991Z,50.90
2018-06-16T19:19:58.220Z,51.30
2018-06-16T19:22:26.469Z,51.70
2018-06-16T19:24:54.856Z,52.30
2018-06-16T19:27:23.048Z,53.10
2018-06-16T19:29:51.308Z,53.90
2018-06-16T19:32:19.504Z,55.10
2018-06-16T19:34:47.724Z,56.50
2018-06-16T19:37:15.969Z,58.30
2018-06-16T19:39:44.171Z,59.50
2018-06-16T19:42:12.393Z,61.20
2018-06-16T19:44:40.631Z,62.70
2018-06-16T19:47:08.828Z,64.20
2018-06-16T19:49:37.047Z,65.00
2018-06-16T19:52:05.279Z,66.60
2018-06-16T19:54:33.532Z,67.30
2018-06-16T19:57:01.766Z,68.70
2018-06-16T19:59:29.955Z,69.90
2018-06-16T20:01:58.180Z,70.60
2018-06-16T20:04:26.385Z,71.30
2018-06-16T20:06:54.600Z,72.00
2018-06-16T20:09:22.852Z,72.40
2018-06-16T20:11:51.112Z,72.80
2018-06-16T20:14:19.278Z,73.00
2018-06-16T20:16:47.477Z,73.30
2018-06-16T20:19:15.688Z,73.50
2018-06-16T20:21:43.885Z,73.60
2018-06-16T20:24:12.139Z,73.90
2018-06-16T20:26:40.360Z,73.70
2018-06-16T20:29:08.558Z,74.20
2018-06-16T20:31:36.788Z,74.60
2018-06-16T20:34:05.860Z,75.00
2018-06-16T20:36:34.056Z,75.40
2018-06-16T20:39:02.288Z,76.00
2018-06-16T20:41:30.511Z,76.70
2018-06-16T20:43:58.705Z,77.30
2018-06-16T20:48:54.906Z,79.10
2018-06-16T20:51:23.117Z,78.90
2018-06-16T20:53:51.328Z,79.70
2018-06-16T20:56:19.544Z,80.80
2018-06-16T20:58:47.756Z,81.90
2018-06-16T21:01:15.996Z,83.00
2018-06-16T21:03:44.220Z,83.80
2018-06-16T21:06:12.418Z,84.40
2018-06-16T21:08:40.625Z,85.10
2018-06-16T21:11:08.817Z,85.40
2018-06-16T21:13:37.110Z,85.90
2018-06-16T21:16:05.296Z,86.60
2018-06-16T21:18:33.504Z,87.30
2018-06-16T21:21:01.857Z,88.10
2018-06-16T21:23:30.134Z,88.40
2018-06-16T21:25:58.320Z,89.00
2018-06-16T21:28:26.492Z,89.70
2018-06-16T21:30:54.708Z,90.00
2018-06-16T21:33:22.980Z,90.20
2018-06-16T21:38:19.152Z,90.50
2018-06-16T21:40:47.381Z,90.70
2018-06-16T21:43:15.596Z,90.90
2018-06-16T21:45:43.781Z,91.00
2018-06-16T21:48:12.020Z,91.20
2018-06-16T21:50:40.284Z,91.40
2018-06-16T21:53:08.509Z,91.60
2018-06-16T21:55:36.708Z,91.80
2018-06-16T21:58:05.384Z,92.00
2018-06-16T22:00:33.692Z,92.10
2018-06-16T22:03:02.504Z,92.20
2018-06-16T22:05:30.740Z,92.30
2018-06-16T22:08:03.232Z,92.30
2018-06-16T22:10:31.552Z,92.50
2018-06-16T22:13:00.609Z,92.60
2018-06-16T22:15:28.837Z,92.70
2018-06-16T22:17:57.036Z,92.80
2018-06-16T22:20:25.259Z,92.80
2018-06-16T22:22:53.480Z,92.70
2018-06-16T22:25:21.692Z,93.00
2018-06-16T22:27:50.320Z,92.50
2018-06-16T22:30:18.691Z,92.60
2018-06-16T22:32:46.936Z,92.60
2018-06-16T22:35:15.213Z,92.80
2018-06-16T22:37:43.695Z,92.80
2018-06-16T22:40:12.029Z,92.80
2018-06-16T22:42:40.280Z,92.80
2018-06-16T22:45:08.539Z,92.70
2018-06-16T22:47:36.739Z,92.60
2018-06-16T22:50:05.024Z,92.60
2018-06-16T22:52:33.196Z,92.60
2018-06-16T22:55:01.421Z,92.50
2018-06-16T22:57:29.624Z,92.40
2018-06-16T22:59:57.844Z,92.40
2018-06-16T23:02:26.141Z,92.50
2018-06-16T23:04:54.457Z,91.80
2018-06-16T23:07:22.690Z,91.50
2018-06-16T23:09:50.871Z,91.10
2018-06-16T23:12:19.080Z,90.80
2018-06-16T23:14:47.288Z,90.50
2018-06-16T23:17:15.513Z,90.30
2018-06-16T23:19:43.736Z,90.10
2018-06-16T23:22:11.931Z,90.00
2018-06-16T23:24:40.160Z,89.70
2018-06-16T23:27:08.383Z,89.30
2018-06-16T23:29:36.572Z,89.10
2018-06-16T23:32:04.788Z,89.20
2018-06-16T23:34:33.004Z,89.10
2018-06-16T23:37:01.364Z,88.90
2018-06-16T23:39:29.584Z,88.90
2018-06-16T23:41:57.977Z,88.80
2018-06-16T23:44:26.197Z,89.20
2018-06-16T23:46:54.383Z,89.50
2018-06-16T23:49:22.611Z,89.50
2018-06-16T23:51:50.820Z,89.50
2018-06-16T23:54:19.012Z,89.50
2018-06-16T23:56:47.220Z,89.80
2018-06-16T23:59:15.428Z,90.00
